PHWZL EHLE-EHLE

Flight info

Callsign PHWZL
Flight time 0h 3m
Altitude 1000
Route VFR
Aircraft C172/L-SDE3L/L

Departure

Time 2026-04-27 15:47
Airport Lelystad Airport (EHLE)

Arrival

Time 2026-04-27 15:51
Airport Lelystad Airport (EHLE)
Time Latitude Longitude Altitude Speed Heading
2026-04-27 15:31 52.45891 5.53086 -9 ft 0 kts 227°
2026-04-27 15:37 52.45889 5.53082 -9 ft 1 kts 232°
2026-04-27 15:37 52.45890 5.53037 -9 ft 7 kts 323°
2026-04-27 15:38 52.45921 5.52993 -9 ft 5 kts 317°
2026-04-27 15:38 52.45938 5.52952 -9 ft 5 kts 251°
2026-04-27 15:38 52.45897 5.52880 -10 ft 13 kts 226°
2026-04-27 15:38 52.45814 5.52730 -9 ft 20 kts 231°
2026-04-27 15:39 52.45727 5.52577 -9 ft 17 kts 227°
2026-04-27 15:39 52.45652 5.52442 -9 ft 15 kts 228°
2026-04-27 15:39 52.45587 5.52325 -9 ft 13 kts 227°
2026-04-27 15:39 52.45530 5.52223 -9 ft 11 kts 228°
2026-04-27 15:40 52.45463 5.52103 -10 ft 18 kts 228°
2026-04-27 15:40 52.45366 5.51929 -9 ft 22 kts 228°
2026-04-27 15:40 52.45268 5.51753 -9 ft 20 kts 227°
2026-04-27 15:40 52.45189 5.51593 -9 ft 17 kts 230°
2026-04-27 15:41 52.45116 5.51463 -9 ft 14 kts 228°
2026-04-27 15:41 52.45055 5.51347 -9 ft 12 kts 224°
2026-04-27 15:41 52.45039 5.51266 -9 ft 6 kts 320°
2026-04-27 15:41 52.45059 5.51241 -9 ft 0 kts 312°
2026-04-27 15:42 52.45061 5.51238 -9 ft 3 kts 311°
2026-04-27 15:42 52.45119 5.51147 -9 ft 11 kts 320°
2026-04-27 15:42 52.45190 5.51222 -7 ft 30 kts 49°
2026-04-27 15:43 52.45440 5.51676 13 ft 71 kts 46°
2026-04-27 15:43 52.45789 5.52276 219 ft 75 kts 45°
2026-04-27 15:43 52.46169 5.52915 461 ft 83 kts 41°
2026-04-27 15:43 52.46706 5.53233 537 ft 102 kts 324°
2026-04-27 15:44 52.46699 5.52157 545 ft 105 kts 234°
2026-04-27 15:44 52.46177 5.51294 507 ft 108 kts 227°
2026-04-27 15:44 52.45640 5.50471 482 ft 103 kts 225°
2026-04-27 15:44 52.45114 5.49707 538 ft 98 kts 222°
2026-04-27 15:45 52.44601 5.48944 524 ft 100 kts 225°
2026-04-27 15:45 52.44043 5.48314 496 ft 101 kts 175°
2026-04-27 15:45 52.43813 5.48901 489 ft 58 kts 33°
2026-04-27 15:45 52.44146 5.49360 239 ft 60 kts 49°
2026-04-27 15:46 52.44427 5.49867 96 ft 59 kts 43°
2026-04-27 15:46 52.44704 5.50354 23 ft 59 kts 40°
2026-04-27 15:46 52.44965 5.50820 -9 ft 48 kts 45°
2026-04-27 15:46 52.45211 5.51220 89 ft 53 kts 38°
2026-04-27 15:47 52.45471 5.51711 210 ft 62 kts 49°
2026-04-27 15:47 52.45749 5.52256 381 ft 64 kts 44°
2026-04-27 15:47 52.46070 5.52770 603 ft 67 kts 41°
2026-04-27 15:47 52.46470 5.53347 646 ft 78 kts 37°
2026-04-27 15:48 52.47030 5.53627 498 ft 99 kts 328°
2026-04-27 15:48 52.47049 5.52551 510 ft 110 kts 233°
2026-04-27 15:48 52.46507 5.51653 489 ft 114 kts 227°
2026-04-27 15:49 52.45347 5.49831 500 ft 113 kts 227°
2026-04-27 15:49 52.44800 5.48956 544 ft 111 kts 227°
2026-04-27 15:49 52.44273 5.48091 568 ft 92 kts 227°
2026-04-27 15:49 52.43868 5.48304 446 ft 71 kts 93°
2026-04-27 15:50 52.43959 5.49033 265 ft 60 kts 46°
2026-04-27 15:50 52.44244 5.49533 160 ft 60 kts 47°
2026-04-27 15:50 52.44531 5.50042 68 ft 61 kts 44°
2026-04-27 15:50 52.44814 5.50549 13 ft 60 kts 40°
2026-04-27 15:51 52.45069 5.51013 -9 ft 46 kts 45°
2026-04-27 15:51 52.45313 5.51432 65 ft 56 kts 43°
2026-04-27 15:51 52.45605 5.51926 200 ft 66 kts 45°
2026-04-27 15:51 52.45884 5.52524 459 ft 66 kts 47°
2026-04-27 15:52 52.46220 5.53027 750 ft 64 kts 40°
2026-04-27 15:52 52.46678 5.53473 579 ft 77 kts 359°
2026-04-27 15:52 52.46910 5.52796 487 ft 80 kts 254°
2026-04-27 15:52 52.46514 5.52141 497 ft 85 kts 221°
2026-04-27 15:53 52.46036 5.51490 543 ft 90 kts 227°
2026-04-27 15:53 52.45556 5.50754 442 ft 96 kts 226°
2026-04-27 15:53 52.45083 5.50003 512 ft 97 kts 230°
2026-04-27 15:53 52.44592 5.49169 572 ft 104 kts 227°
2026-04-27 15:54 52.44074 5.48355 583 ft 102 kts 211°
2026-04-27 15:54 52.43672 5.48788 439 ft 76 kts 39°
2026-04-27 15:54 52.44160 5.49364 138 ft 96 kts 50°
2026-04-27 15:54 52.44563 5.50104 21 ft 80 kts 44°
2026-04-27 15:55 52.44904 5.50716 -8 ft 64 kts 45°
2026-04-27 15:55 52.45084 5.51032 -9 ft 51 kts 45°
2026-04-27 15:55 52.45339 5.51476 -7 ft 33 kts 44°
2026-04-27 15:55 52.45524 5.51820 -9 ft 58 kts 42°
2026-04-27 15:56 52.45832 5.52364 177 ft 66 kts 44°
2026-04-27 15:56 52.46168 5.52914 468 ft 67 kts 42°
2026-04-27 15:56 52.46514 5.53436 701 ft 70 kts 47°
2026-04-27 15:56 52.46857 5.54078 895 ft 79 kts 50°
2026-04-27 15:57 52.47219 5.54762 1184 ft 79 kts 46°
2026-04-27 15:57 52.47602 5.55387 1494 ft 76 kts 43°
2026-04-27 15:57 52.48002 5.55960 1815 ft 76 kts 39°
2026-04-27 15:57 52.48423 5.56475 2144 ft 75 kts 34°
2026-04-27 15:58 52.48898 5.56750 2399 ft 78 kts 358°
2026-04-27 15:58 52.49432 5.56671 2622 ft 77 kts 360°
2026-04-27 15:58 52.50001 5.56652 2719 ft 93 kts
2026-04-27 15:58 52.50587 5.56100 2710 ft 115 kts 302°
2026-04-27 15:59 52.50518 5.54788 2710 ft 125 kts 235°